Time;durP1;ratioP1;P1;durP2;ratioP2;P2;SDS_P1;SDS_P2;PMS_P1;PMS_P2;Temp;Humidity;BMP_temperature;BMP_pressure;BME280_temperature;BME280_humidity;BME280_pressure;Samples;Min_cycle;Max_cycle;Signal;HPM_P1;HPM_P2
2023/01/28 00:00:33;;;;;;;;;;;2.20;99.90;;;;;;5058865;28;19921;-72
2023/01/28 00:02:59;;;;;;;;;;;2.20;99.90;;;;;;5011066;28;208554;-72
2023/01/28 00:05:26;;;;;;;;;;;2.20;99.90;;;;;;5017215;28;19921;-72
2023/01/28 00:07:52;;;;;;;;;;;2.20;99.90;;;;;;5039231;28;215484;-72
2023/01/28 00:10:18;;;;;;;;;;;2.20;99.90;;;;;;5004008;28;59622;-72
2023/01/28 00:12:44;;;;;;;;;;;2.20;99.90;;;;;;5049262;28;19928;-72
2023/01/28 00:15:10;;;;;;;;;;;2.20;99.90;;;;;;4991674;28;208944;-72
2023/01/28 00:17:36;;;;;;;;;;;2.20;99.90;;;;;;5034773;28;19936;-72
2023/01/28 00:20:03;;;;;;;;;;;2.20;99.90;;;;;;4987818;28;209820;-72
2023/01/28 00:22:30;;;;;;;;;;;2.20;99.90;;;;;;5038740;28;19925;-72
2023/01/28 00:24:56;;;;;;;;;;;2.20;99.90;;;;;;4988487;28;207494;-72
2023/01/28 00:27:22;;;;;;;;;;;2.20;99.90;;;;;;5041095;28;19933;-72
2023/01/28 00:29:48;;;;;;;;;;;2.20;99.90;;;;;;5009797;28;225045;-72
2023/01/28 00:32:14;;;;;;;;;;;2.20;99.90;;;;;;5042201;28;19925;-72
2023/01/28 00:34:40;;;;;;;;;;;2.20;99.90;;;;;;4995835;28;128674;-72
2023/01/28 00:37:06;;;;;;;;;;;2.20;99.90;;;;;;5057099;28;19925;-72
2023/01/28 00:39:32;;;;;;;;;;;2.20;99.90;;;;;;4979388;28;232406;-72
2023/01/28 00:41:58;;;;;;;;;;;2.20;99.90;;;;;;5034270;28;19935;-72
2023/01/28 00:44:24;;;;;;;;;;;2.10;99.90;;;;;;4968436;28;209816;-71
2023/01/28 00:46:50;;;;;;;;;;;2.10;99.90;;;;;;5017212;28;19933;-71
2023/01/28 00:49:16;;;;;;;;;;;2.20;99.90;;;;;;4983775;28;206093;-72
2023/01/28 00:51:42;;;;;;;;;;;2.10;99.90;;;;;;5023947;28;19933;-72
2023/01/28 00:54:10;;;;;;;;;;;2.10;99.90;;;;;;4988621;28;244979;-72
2023/01/28 00:56:37;;;;;;;;;;;2.10;99.90;;;;;;5031121;28;19925;-72
2023/01/28 00:59:03;;;;;;;;;;;2.20;99.90;;;;;;5006387;28;209424;-72
2023/01/28 01:01:28;;;;;;;;;;;2.10;99.90;;;;;;5041513;28;19921;-72
2023/01/28 01:04:01;;;;;;;;;;;2.10;99.90;;;;;;4987188;28;209365;-72
2023/01/28 01:06:38;;;;;;;;;;;2.10;99.90;;;;;;5044031;28;20681;-72
2023/01/28 01:09:07;;;;;;;;;;;2.10;99.90;;;;;;4978217;28;208066;-72
2023/01/28 01:11:33;;;;;;;;;;;2.10;99.90;;;;;;5041172;28;19925;-72
2023/01/28 01:14:00;;;;;;;;;;;2.20;99.90;;;;;;4968995;28;250757;-72
2023/01/28 01:16:27;;;;;;;;;;;2.10;99.90;;;;;;5041316;28;19939;-72
2023/01/28 01:18:54;;;;;;;;;;;2.10;99.90;;;;;;4987029;28;205864;-71
2023/01/28 01:21:21;;;;;;;;;;;2.10;99.90;;;;;;5039518;28;19921;-72
2023/01/28 01:23:47;;;;;;;;;;;2.10;99.90;;;;;;4978375;28;177634;-72
2023/01/28 01:26:13;;;;;;;;;;;2.10;99.90;;;;;;5042261;28;19924;-72
2023/01/28 01:28:39;;;;;;;;;;;2.10;99.90;;;;;;4982940;28;209451;-72
2023/01/28 01:31:07;;;;;;;;;;;2.10;99.90;;;;;;5066963;28;19929;-72
2023/01/28 01:33:33;;;;;;;;;;;2.10;99.90;;;;;;5005361;28;208984;-72
2023/01/28 01:35:59;;;;;;;;;;;2.10;99.90;;;;;;5031784;28;19928;-73
2023/01/28 01:38:26;;;;;;;;;;;2.10;99.90;;;;;;4975189;28;204902;-73
2023/01/28 01:40:54;;;;;;;;;;;2.10;99.90;;;;;;5027922;28;19928;-73
2023/01/28 01:43:46;;;;;;;;;;;2.10;99.90;;;;;;4981643;28;188904;-73
2023/01/28 01:46:16;;;;;;;;;;;2.00;99.90;;;;;;5051446;28;19927;-72
2023/01/28 01:48:42;;;;;;;;;;;2.10;99.90;;;;;;5015651;28;218679;-73
2023/01/28 01:51:10;;;;;;;;;;;2.10;99.90;;;;;;5081656;28;19924;-73
2023/01/28 01:53:37;;;;;;;;;;;2.00;99.90;;;;;;5006802;28;58403;-73
2023/01/28 01:56:05;;;;;;;;;;;2.10;99.90;;;;;;5055144;28;19925;-72
2023/01/28 01:58:34;;;;;;;;;;;2.00;99.90;;;;;;5005379;28;211939;-73
2023/01/28 02:01:00;;;;;;;;;;;2.00;99.90;;;;;;5055747;28;20354;-73
2023/01/28 02:03:55;;;;;;;;;;;2.00;99.90;;;;;;4976957;28;227853;-73
2023/01/28 02:06:22;;;;;;;;;;;2.00;99.90;;;;;;4973783;28;19930;-72
2023/01/28 02:08:48;;;;;;;;;;;2.00;99.90;;;;;;4948783;28;244593;-72
2023/01/28 02:11:15;;;;;;;;;;;2.00;99.90;;;;;;5021378;28;19992;-73
2023/01/28 02:13:45;;;;;;;;;;;2.00;99.90;;;;;;4957626;28;128180;-73
2023/01/28 02:16:11;;;;;;;;;;;2.00;99.90;;;;;;4999294;28;19925;-72
2023/01/28 02:18:37;;;;;;;;;;;2.00;99.90;;;;;;4962439;28;205102;-72
2023/01/28 02:21:15;;;;;;;;;;;2.00;99.90;;;;;;4982942;28;19921;-72
2023/01/28 02:23:41;;;;;;;;;;;1.90;99.90;;;;;;4940608;28;204380;-72
2023/01/28 02:26:13;;;;;;;;;;;2.00;99.90;;;;;;5003595;28;19979;-72
2023/01/28 02:28:50;;;;;;;;;;;2.00;99.90;;;;;;4944137;28;197543;-73
2023/01/28 02:31:35;;;;;;;;;;;2.00;99.90;;;;;;5010703;28;19926;-72
2023/01/28 02:34:07;;;;;;;;;;;2.00;99.90;;;;;;4958287;28;208694;-72
2023/01/28 02:36:33;;;;;;;;;;;2.00;99.90;;;;;;4982992;28;19925;-73
2023/01/28 02:39:02;;;;;;;;;;;2.00;99.90;;;;;;4963980;28;176036;-73
2023/01/28 02:41:31;;;;;;;;;;;2.00;99.90;;;;;;4992812;28;19930;-73
2023/01/28 02:44:00;;;;;;;;;;;2.00;99.90;;;;;;4993860;28;207287;-73
2023/01/28 02:49:13;;;;;;;;;;;2.00;99.90;;;;;;4986406;28;29362;-72
2023/01/28 02:51:39;;;;;;;;;;;2.00;99.90;;;;;;5026833;28;21686;-73
2023/01/28 02:54:25;;;;;;;;;;;2.00;99.90;;;;;;4997470;28;212598;-73
2023/01/28 02:57:06;;;;;;;;;;;2.00;99.90;;;;;;5060186;28;20376;-73
2023/01/28 02:59:37;;;;;;;;;;;2.00;99.90;;;;;;5018734;28;206437;-73
2023/01/28 03:02:07;;;;;;;;;;;2.00;99.90;;;;;;5038130;28;20132;-73
2023/01/28 03:04:40;;;;;;;;;;;2.00;99.90;;;;;;4991000;28;195677;-73
2023/01/28 03:07:07;;;;;;;;;;;2.00;99.90;;;;;;5040393;28;19953;-73
2023/01/28 03:09:34;;;;;;;;;;;2.00;99.90;;;;;;4974634;28;208374;-73
2023/01/28 03:37:22;;;;;;;;;;;2.00;99.90;;;;;;5036766;28;19955;-74
2023/01/28 03:39:48;;;;;;;;;;;2.00;99.90;;;;;;4991698;28;209751;-73
2023/01/28 03:42:14;;;;;;;;;;;2.00;99.90;;;;;;5023970;28;19955;-73
2023/01/28 03:44:52;;;;;;;;;;;2.00;99.90;;;;;;5004026;28;208353;-73
2023/01/28 03:47:22;;;;;;;;;;;1.90;99.90;;;;;;5045529;28;19928;-73
2023/01/28 03:49:49;;;;;;;;;;;1.90;99.90;;;;;;5011585;28;212095;-72
2023/01/28 03:52:19;;;;;;;;;;;2.00;99.90;;;;;;5061853;28;20384;-73
2023/01/28 03:54:49;;;;;;;;;;;2.00;99.90;;;;;;5026845;28;114164;-72
2023/01/28 03:57:15;;;;;;;;;;;2.00;99.90;;;;;;5057107;28;19924;-72
2023/01/28 03:59:41;;;;;;;;;;;2.00;99.90;;;;;;4991134;28;208333;-73
2023/01/28 04:02:09;;;;;;;;;;;2.00;99.90;;;;;;5041663;28;19928;-73
2023/01/28 04:04:38;;;;;;;;;;;2.00;99.90;;;;;;5001525;28;207874;-73
2023/01/28 04:07:07;;;;;;;;;;;2.00;99.90;;;;;;5044058;28;20407;-73
2023/01/28 04:09:34;;;;;;;;;;;2.00;99.90;;;;;;4991541;28;208421;-73
2023/01/28 04:12:00;;;;;;;;;;;2.00;99.90;;;;;;5021033;28;19928;-73
2023/01/28 04:14:26;;;;;;;;;;;1.90;99.90;;;;;;5003633;28;209459;-72
2023/01/28 04:16:53;;;;;;;;;;;2.00;99.90;;;;;;5036677;28;20293;-73
2023/01/28 04:19:20;;;;;;;;;;;2.00;99.90;;;;;;4995336;28;75151;-71
2023/01/28 04:21:46;;;;;;;;;;;2.00;99.90;;;;;;5043180;28;19928;-71
2023/01/28 04:24:12;;;;;;;;;;;2.00;99.90;;;;;;4998472;28;208441;-72
2023/01/28 04:26:38;;;;;;;;;;;1.90;99.90;;;;;;5056554;28;19935;-72
2023/01/28 04:29:04;;;;;;;;;;;2.00;99.90;;;;;;5000098;28;211915;-72
2023/01/28 04:31:30;;;;;;;;;;;2.00;99.90;;;;;;5038132;28;20739;-72
2023/01/28 04:33:56;;;;;;;;;;;1.90;99.90;;;;;;4962989;28;208802;-72
2023/01/28 04:36:23;;;;;;;;;;;2.00;99.90;;;;;;5057743;28;19928;-72
2023/01/28 04:38:49;;;;;;;;;;;1.90;99.90;;;;;;5009498;28;211421;-71
2023/01/28 04:41:15;;;;;;;;;;;1.90;99.90;;;;;;5047843;28;19924;-71
2023/01/28 04:43:41;;;;;;;;;;;1.90;99.90;;;;;;5013384;28;208513;-71
2023/01/28 04:46:07;;;;;;;;;;;1.90;99.90;;;;;;5053329;28;19924;-72
2023/01/28 04:48:33;;;;;;;;;;;1.90;99.90;;;;;;4985102;28;68565;-72
2023/01/28 04:51:00;;;;;;;;;;;1.90;99.90;;;;;;5028015;28;19924;-71
2023/01/28 04:53:25;;;;;;;;;;;1.90;99.90;;;;;;4990368;28;208046;-71
2023/01/28 04:55:51;;;;;;;;;;;1.90;99.90;;;;;;5025952;28;20012;-72
2023/01/28 04:58:18;;;;;;;;;;;1.90;99.90;;;;;;5004464;28;205651;-72
2023/01/28 05:00:44;;;;;;;;;;;1.90;99.90;;;;;;5020638;28;20333;-71
2023/01/28 05:03:10;;;;;;;;;;;1.80;99.90;;;;;;4975935;28;209811;-72
2023/01/28 05:05:36;;;;;;;;;;;1.80;99.90;;;;;;5018916;28;19927;-71
2023/01/28 05:08:02;;;;;;;;;;;1.80;99.90;;;;;;4990901;28;206620;-71
2023/01/28 05:10:31;;;;;;;;;;;1.90;99.90;;;;;;5031038;28;20452;-72
2023/01/28 05:13:00;;;;;;;;;;;1.90;99.90;;;;;;4985087;28;208304;-72
2023/01/28 05:15:26;;;;;;;;;;;1.80;99.90;;;;;;5022692;28;19924;-72
2023/01/28 05:17:53;;;;;;;;;;;1.90;99.90;;;;;;5027982;28;209184;-72
2023/01/28 05:20:19;;;;;;;;;;;1.80;99.90;;;;;;5029198;28;220808;-72
2023/01/28 05:22:45;;;;;;;;;;;1.80;99.90;;;;;;5026270;28;19932;-72
2023/01/28 05:25:12;;;;;;;;;;;1.80;99.90;;;;;;4977048;28;247106;-72
2023/01/28 05:27:38;;;;;;;;;;;1.80;99.90;;;;;;5045998;28;19958;-73
2023/01/28 05:30:05;;;;;;;;;;;1.90;99.90;;;;;;5001730;28;237095;-72
2023/01/28 05:32:31;;;;;;;;;;;1.80;99.90;;;;;;5045484;28;19935;-72
2023/01/28 05:34:57;;;;;;;;;;;1.80;99.90;;;;;;4994578;28;209873;-71
2023/01/28 05:37:23;;;;;;;;;;;1.80;99.90;;;;;;5044919;28;19929;-72
2023/01/28 05:39:49;;;;;;;;;;;1.80;99.90;;;;;;4981259;28;140396;-72
2023/01/28 05:42:16;;;;;;;;;;;1.80;99.90;;;;;;5026184;28;20384;-71
2023/01/28 05:44:42;;;;;;;;;;;1.70;99.90;;;;;;4999569;28;206184;-71
2023/01/28 05:47:08;;;;;;;;;;;1.70;99.90;;;;;;5061188;28;20690;-71
2023/01/28 05:49:34;;;;;;;;;;;1.80;99.90;;;;;;5018725;28;208971;-71
2023/01/28 05:52:01;;;;;;;;;;;1.70;99.90;;;;;;5063573;28;19920;-71
2023/01/28 05:54:27;;;;;;;;;;;1.80;99.90;;;;;;4992094;28;206587;-72
2023/01/28 05:56:53;;;;;;;;;;;1.70;99.90;;;;;;5056192;28;19928;-71
2023/01/28 05:59:19;;;;;;;;;;;1.70;99.90;;;;;;4991607;28;215961;-71
2023/01/28 06:01:45;;;;;;;;;;;1.70;99.90;;;;;;5053737;28;19924;-71
2023/01/28 06:04:11;;;;;;;;;;;1.70;99.90;;;;;;5001263;28;211962;-71
2023/01/28 06:06:37;;;;;;;;;;;1.70;99.90;;;;;;5046486;28;20794;-71
2023/01/28 06:09:03;;;;;;;;;;;1.70;99.90;;;;;;4996256;28;208794;-71
2023/01/28 06:11:29;;;;;;;;;;;1.70;99.90;;;;;;5042448;28;19924;-71
2023/01/28 06:13:55;;;;;;;;;;;1.70;99.90;;;;;;4983287;28;227140;-71
2023/01/28 06:16:21;;;;;;;;;;;1.70;99.90;;;;;;5028884;28;20554;-71
2023/01/28 06:18:47;;;;;;;;;;;1.70;99.90;;;;;;4979921;28;249311;-72
2023/01/28 06:21:13;;;;;;;;;;;1.70;99.90;;;;;;5066949;28;19928;-71
2023/01/28 06:23:39;;;;;;;;;;;1.70;99.90;;;;;;5002079;28;210042;-71
2023/01/28 06:26:05;;;;;;;;;;;1.70;99.90;;;;;;5044803;28;20367;-72
2023/01/28 06:28:31;;;;;;;;;;;1.70;99.90;;;;;;4994427;28;206608;-72
2023/01/28 06:30:56;;;;;;;;;;;1.70;99.90;;;;;;5058335;28;19986;-71
2023/01/28 06:33:23;;;;;;;;;;;1.70;99.90;;;;;;4987224;28;206152;-71
2023/01/28 06:35:49;;;;;;;;;;;1.70;99.90;;;;;;5043096;28;19924;-71
2023/01/28 06:38:15;;;;;;;;;;;1.70;99.90;;;;;;5008420;28;222001;-72
2023/01/28 06:40:41;;;;;;;;;;;1.70;99.90;;;;;;5078544;28;19924;-71
2023/01/28 06:43:07;;;;;;;;;;;1.70;99.90;;;;;;5021790;28;208807;-72
2023/01/28 06:45:33;;;;;;;;;;;1.60;99.90;;;;;;5060461;28;19925;-72
2023/01/28 06:47:59;;;;;;;;;;;1.60;99.90;;;;;;5013226;28;208300;-73
2023/01/28 06:50:25;;;;;;;;;;;1.60;99.90;;;;;;4994504;28;19925;-73
2023/01/28 06:52:51;;;;;;;;;;;1.60;99.90;;;;;;5047767;28;208296;-73
2023/01/28 06:55:17;;;;;;;;;;;1.60;99.90;;;;;;5004589;28;40945;-73
2023/01/28 06:57:46;;;;;;;;;;;1.60;99.90;;;;;;5026505;28;19929;-72
2023/01/28 07:00:14;;;;;;;;;;;1.60;99.90;;;;;;4962648;28;207484;-73
2023/01/28 07:02:40;;;;;;;;;;;1.60;99.90;;;;;;5038703;28;19924;-73
2023/01/28 07:05:06;;;;;;;;;;;1.60;99.90;;;;;;4984745;28;208742;-74
2023/01/28 07:07:32;;;;;;;;;;;1.60;99.90;;;;;;5060318;28;19931;-74
2023/01/28 07:09:58;;;;;;;;;;;1.60;99.90;;;;;;4997761;28;208341;-74
2023/01/28 07:12:24;;;;;;;;;;;1.60;99.90;;;;;;5046076;28;19960;-73
2023/01/28 07:14:50;;;;;;;;;;;1.60;99.90;;;;;;5017542;28;209709;-73
2023/01/28 07:17:16;;;;;;;;;;;1.50;99.90;;;;;;5026419;28;19924;-71
2023/01/28 07:19:42;;;;;;;;;;;1.50;99.90;;;;;;4986975;28;208399;-72
2023/01/28 07:22:08;;;;;;;;;;;1.50;99.90;;;;;;5025349;28;19924;-73
2023/01/28 07:24:34;;;;;;;;;;;1.50;99.90;;;;;;4994132;28;108819;-73
2023/01/28 07:27:00;;;;;;;;;;;1.50;99.90;;;;;;5007614;28;20159;-73
2023/01/28 07:29:26;;;;;;;;;;;1.50;99.90;;;;;;4963736;28;207944;-73
2023/01/28 07:31:52;;;;;;;;;;;1.40;99.90;;;;;;5028472;28;21185;-73
2023/01/28 07:34:17;;;;;;;;;;;1.40;99.90;;;;;;4989782;28;215776;-74
2023/01/28 07:36:43;;;;;;;;;;;1.50;99.90;;;;;;5031179;28;19968;-73
2023/01/28 07:39:09;;;;;;;;;;;1.40;99.90;;;;;;4984065;28;209433;-73
2023/01/28 07:41:35;;;;;;;;;;;1.40;99.90;;;;;;5015044;28;20393;-73
2023/01/28 07:44:01;;;;;;;;;;;1.30;99.90;;;;;;4989692;28;230907;-73
2023/01/28 07:46:27;;;;;;;;;;;1.30;99.90;;;;;;5040856;28;19931;-73
2023/01/28 07:48:53;;;;;;;;;;;1.20;99.90;;;;;;4981370;28;207282;-73
2023/01/28 07:51:19;;;;;;;;;;;1.20;99.90;;;;;;5016772;28;19936;-73
2023/01/28 07:53:45;;;;;;;;;;;1.20;99.90;;;;;;4982134;28;212219;-73
2023/01/28 07:56:11;;;;;;;;;;;1.20;99.90;;;;;;5004809;28;19928;-71
2023/01/28 07:58:37;;;;;;;;;;;1.10;99.90;;;;;;4969123;28;208408;-72
2023/01/28 08:01:03;;;;;;;;;;;1.00;99.90;;;;;;5046800;28;19928;-73
2023/01/28 08:03:30;;;;;;;;;;;1.10;99.90;;;;;;4960149;28;111343;-72
2023/01/28 08:05:56;;;;;;;;;;;1.00;99.90;;;;;;5023746;28;20405;-72
2023/01/28 08:08:23;;;;;;;;;;;0.90;99.90;;;;;;5004630;28;208531;-72
2023/01/28 08:10:49;;;;;;;;;;;0.90;99.90;;;;;;5054750;28;19924;-72
2023/01/28 08:13:15;;;;;;;;;;;1.00;99.90;;;;;;5014725;28;208158;-73
2023/01/28 08:15:41;;;;;;;;;;;1.00;99.90;;;;;;5026579;28;19924;-72
2023/01/28 08:18:08;;;;;;;;;;;0.90;99.90;;;;;;4986075;28;207773;-72
2023/01/28 08:20:35;;;;;;;;;;;0.90;99.90;;;;;;5052363;28;19924;-72
2023/01/28 08:23:17;;;;;;;;;;;0.90;99.90;;;;;;4997698;28;215720;-72
2023/01/28 08:25:43;;;;;;;;;;;0.90;99.90;;;;;;5032272;28;19932;-72
2023/01/28 08:28:09;;;;;;;;;;;0.90;99.90;;;;;;4992683;28;210130;-72
2023/01/28 08:30:36;;;;;;;;;;;0.90;99.90;;;;;;5035191;28;19925;-72
2023/01/28 08:33:03;;;;;;;;;;;0.90;99.90;;;;;;4974112;28;218095;-71
2023/01/28 08:35:29;;;;;;;;;;;0.90;99.90;;;;;;5055265;28;19924;-72
2023/01/28 08:37:57;;;;;;;;;;;1.00;99.90;;;;;;5019339;28;214150;-72
2023/01/28 08:40:23;;;;;;;;;;;0.90;99.90;;;;;;4984732;28;206757;-72
2023/01/28 08:42:50;;;;;;;;;;;1.00;99.90;;;;;;5036439;28;19921;-72
2023/01/28 08:45:17;;;;;;;;;;;0.90;99.90;;;;;;4996034;28;126839;-73
2023/01/28 08:47:49;;;;;;;;;;;0.90;99.90;;;;;;5057931;28;19925;-72
2023/01/28 08:50:16;;;;;;;;;;;1.00;99.90;;;;;;4960721;28;211892;-73
2023/01/28 08:52:43;;;;;;;;;;;1.00;99.90;;;;;;5063152;28;20405;-72
2023/01/28 08:55:10;;;;;;;;;;;1.10;99.90;;;;;;4996830;28;120849;-73
2023/01/28 08:57:36;;;;;;;;;;;1.10;99.90;;;;;;5041399;28;19928;-72
2023/01/28 09:00:03;;;;;;;;;;;1.20;99.90;;;;;;5011314;28;108082;-73
2023/01/28 09:02:29;;;;;;;;;;;1.30;99.90;;;;;;5038725;28;20503;-72
2023/01/28 09:04:55;;;;;;;;;;;1.40;99.90;;;;;;4988947;28;253079;-72
2023/01/28 09:07:20;;;;;;;;;;;1.60;99.90;;;;;;5060773;28;19946;-73
2023/01/28 09:09:46;;;;;;;;;;;1.70;99.90;;;;;;4983959;28;210182;-72
2023/01/28 09:12:12;;;;;;;;;;;1.80;99.90;;;;;;5023629;28;20393;-72
2023/01/28 09:14:38;;;;;;;;;;;1.90;99.90;;;;;;4984922;28;207865;-72
2023/01/28 09:17:04;;;;;;;;;;;1.90;99.90;;;;;;5056511;28;20363;-72
2023/01/28 09:19:30;;;;;;;;;;;2.00;99.90;;;;;;4990204;28;177427;-72
2023/01/28 09:21:56;;;;;;;;;;;2.00;99.90;;;;;;5022644;28;19946;-72
2023/01/28 09:24:22;;;;;;;;;;;1.90;99.90;;;;;;4989615;28;208744;-72
2023/01/28 09:26:49;;;;;;;;;;;1.80;99.90;;;;;;5050369;28;19924;-71
2023/01/28 09:29:15;;;;;;;;;;;1.70;99.90;;;;;;5041891;28;19972;-72
2023/01/28 09:31:41;;;;;;;;;;;1.70;99.90;;;;;;5039345;28;20309;-72
2023/01/28 09:34:08;;;;;;;;;;;1.60;99.90;;;;;;4999711;28;232332;-73
2023/01/28 09:36:34;;;;;;;;;;;1.60;99.90;;;;;;5015650;28;20389;-72
2023/01/28 09:39:01;;;;;;;;;;;1.60;99.90;;;;;;4964550;28;209627;-73
2023/01/28 09:41:30;;;;;;;;;;;1.70;99.90;;;;;;5035711;28;20515;-72
2023/01/28 09:43:56;;;;;;;;;;;1.70;99.90;;;;;;4977809;28;209099;-72
2023/01/28 09:46:25;;;;;;;;;;;1.70;99.90;;;;;;5037554;28;19933;-72
2023/01/28 09:48:52;;;;;;;;;;;1.70;99.90;;;;;;4989219;28;208994;-71
2023/01/28 09:51:37;;;;;;;;;;;1.80;99.90;;;;;;5030197;28;19933;-72
2023/01/28 09:54:05;;;;;;;;;;;2.00;99.90;;;;;;4984021;28;210092;-72
2023/01/28 09:56:36;;;;;;;;;;;2.10;99.90;;;;;;5037485;28;19924;-72
2023/01/28 09:59:12;;;;;;;;;;;2.30;99.90;;;;;;4986028;28;210747;-72
2023/01/28 10:01:45;;;;;;;;;;;2.50;99.90;;;;;;5010039;28;19929;-73
2023/01/28 10:04:22;;;;;;;;;;;2.70;99.90;;;;;;4978989;28;211810;-73
2023/01/28 10:06:54;;;;;;;;;;;2.80;99.90;;;;;;5034530;28;20488;-72
2023/01/28 10:09:26;;;;;;;;;;;2.80;99.90;;;;;;4997415;28;91456;-72
2023/01/28 10:11:51;;;;;;;;;;;2.90;99.90;;;;;;5042178;28;19925;-72
2023/01/28 10:14:31;;;;;;;;;;;3.10;99.90;;;;;;5009127;28;208539;-72
2023/01/28 10:17:00;;;;;;;;;;;3.00;99.90;;;;;;5054215;28;20309;-72
2023/01/28 10:19:28;;;;;;;;;;;2.90;99.90;;;;;;4992544;28;212488;-72
2023/01/28 10:21:58;;;;;;;;;;;2.90;99.90;;;;;;5048783;28;20821;-72
2023/01/28 10:24:28;;;;;;;;;;;3.00;99.90;;;;;;5015531;28;226646;-72
2023/01/28 10:26:55;;;;;;;;;;;3.10;99.90;;;;;;5055037;28;19931;-71
2023/01/28 10:29:23;;;;;;;;;;;3.10;99.90;;;;;;5000461;28;184828;-72
2023/01/28 10:31:53;;;;;;;;;;;3.10;99.90;;;;;;5070882;28;19920;-72
2023/01/28 10:34:20;;;;;;;;;;;3.10;99.90;;;;;;4979581;28;208043;-72
2023/01/28 10:36:46;;;;;;;;;;;3.20;99.90;;;;;;5030863;28;19928;-72
2023/01/28 10:39:15;;;;;;;;;;;3.10;99.90;;;;;;4982463;28;105638;-72
2023/01/28 10:41:41;;;;;;;;;;;3.10;99.90;;;;;;5016401;28;19925;-72
2023/01/28 10:44:27;;;;;;;;;;;3.10;99.90;;;;;;4973957;28;208167;-72
2023/01/28 10:46:56;;;;;;;;;;;3.10;99.90;;;;;;5030621;28;19925;-73
2023/01/28 10:49:25;;;;;;;;;;;3.10;99.90;;;;;;5003651;28;212925;-73
2023/01/28 10:51:51;;;;;;;;;;;3.10;99.90;;;;;;5043540;28;20231;-73
2023/01/28 10:54:19;;;;;;;;;;;3.20;99.90;;;;;;4967939;28;209342;-73
2023/01/28 10:56:46;;;;;;;;;;;3.20;99.90;;;;;;5035080;28;19920;-73
2023/01/28 10:59:18;;;;;;;;;;;3.20;99.90;;;;;;4985423;28;206852;-72
2023/01/28 11:01:52;;;;;;;;;;;3.30;99.90;;;;;;5046963;28;19928;-74
2023/01/28 11:04:25;;;;;;;;;;;3.30;99.90;;;;;;4996557;28;214463;-73
2023/01/28 11:06:59;;;;;;;;;;;3.40;99.90;;;;;;5022133;28;19920;-72
2023/01/28 11:09:27;;;;;;;;;;;3.50;99.90;;;;;;5002032;28;214558;-73
2023/01/28 11:11:53;;;;;;;;;;;3.60;99.90;;;;;;5054505;28;19924;-73
2023/01/28 11:14:23;;;;;;;;;;;3.80;99.90;;;;;;5000796;28;209178;-72
2023/01/28 11:16:50;;;;;;;;;;;3.90;99.90;;;;;;5038960;28;19947;-73
2023/01/28 11:19:17;;;;;;;;;;;4.10;99.90;;;;;;4985550;28;210236;-72
2023/01/28 11:21:47;;;;;;;;;;;4.30;99.90;;;;;;5031970;28;20631;-73
2023/01/28 11:24:15;;;;;;;;;;;4.50;99.90;;;;;;5041993;28;19932;-73
2023/01/28 11:26:45;;;;;;;;;;;4.70;99.90;;;;;;5053837;28;19924;-73
2023/01/28 11:29:21;;;;;;;;;;;4.80;99.90;;;;;;4975123;28;206811;-73
2023/01/28 11:31:47;;;;;;;;;;;5.00;99.90;;;;;;5041829;28;19935;-73
2023/01/28 11:34:16;;;;;;;;;;;5.00;99.90;;;;;;4999014;28;212572;-73
2023/01/28 11:36:48;;;;;;;;;;;5.10;99.90;;;;;;5061544;28;19928;-73
2023/01/28 11:39:19;;;;;;;;;;;5.10;99.90;;;;;;4988516;28;93973;-72
2023/01/28 11:41:46;;;;;;;;;;;5.10;99.90;;;;;;5036906;28;20328;-73
2023/01/28 11:44:16;;;;;;;;;;;5.30;99.90;;;;;;4968864;28;141053;-73
2023/01/28 11:46:48;;;;;;;;;;;5.40;99.90;;;;;;5038510;28;19928;-72
2023/01/28 11:49:13;;;;;;;;;;;5.50;99.90;;;;;;4993941;28;205964;-73
2023/01/28 11:51:43;;;;;;;;;;;5.40;99.90;;;;;;5050957;28;19967;-72
2023/01/28 11:54:16;;;;;;;;;;;5.40;99.90;;;;;;5002095;28;209902;-72
2023/01/28 11:56:48;;;;;;;;;;;5.50;99.90;;;;;;5043189;28;20471;-73
2023/01/28 11:59:23;;;;;;;;;;;5.60;99.90;;;;;;4980822;28;175845;-73
2023/01/28 12:01:58;;;;;;;;;;;5.70;99.90;;;;;;5038039;28;19951;-74
2023/01/28 12:04:29;;;;;;;;;;;5.70;99.90;;;;;;4981743;28;214942;-72
2023/01/28 12:07:00;;;;;;;;;;;5.80;99.90;;;;;;5035343;28;19932;-73
2023/01/28 12:09:42;;;;;;;;;;;5.70;99.90;;;;;;4979403;28;157100;-73
2023/01/28 12:12:28;;;;;;;;;;;5.70;99.90;;;;;;5040714;28;19924;-73
2023/01/28 12:15:00;;;;;;;;;;;5.70;99.90;;;;;;4971000;28;206520;-73
2023/01/28 12:17:34;;;;;;;;;;;5.70;99.90;;;;;;5041417;28;19928;-73
2023/01/28 12:20:17;;;;;;;;;;;5.70;99.90;;;;;;4991215;28;208152;-74
2023/01/28 12:22:53;;;;;;;;;;;5.60;99.90;;;;;;5033919;28;204062;-73
2023/01/28 12:25:25;;;;;;;;;;;5.60;99.90;;;;;;4987895;28;208111;-73
2023/01/28 12:27:59;;;;;;;;;;;5.60;99.90;;;;;;4982815;28;209043;-73
2023/01/28 12:30:45;;;;;;;;;;;5.60;99.90;;;;;;5021291;28;19928;-73
2023/01/28 12:33:26;;;;;;;;;;;5.60;99.90;;;;;;4986148;28;208309;-73
2023/01/28 12:36:01;;;;;;;;;;;5.60;99.90;;;;;;5007244;28;20397;-74
2023/01/28 12:38:42;;;;;;;;;;;5.90;99.90;;;;;;4984039;28;250834;-75
2023/01/28 12:41:08;;;;;;;;;;;6.70;99.90;;;;;;5056950;28;19925;-74
2023/01/28 12:43:34;;;;;;;;;;;8.40;99.90;;;;;;5011425;28;209867;-74
2023/01/28 12:46:04;;;;;;;;;;;9.30;99.90;;;;;;5033655;28;19924;-74
2023/01/28 12:48:38;;;;;;;;;;;9.40;99.90;;;;;;4986173;28;246503;-74
2023/01/28 12:51:15;;;;;;;;;;;9.80;99.90;;;;;;5047905;28;19924;-73
2023/01/28 12:53:48;;;;;;;;;;;9.30;99.90;;;;;;5001590;28;169788;-74
2023/01/28 12:56:21;;;;;;;;;;;8.00;99.90;;;;;;5053088;28;19920;-73
2023/01/28 12:58:51;;;;;;;;;;;7.10;99.90;;;;;;4997271;28;100276;-73
2023/01/28 13:01:21;;;;;;;;;;;7.80;99.90;;;;;;5034909;28;20298;-73
2023/01/28 13:04:06;;;;;;;;;;;9.10;99.90;;;;;;4978903;28;208664;-73
2023/01/28 13:06:37;;;;;;;;;;;10.00;99.90;;;;;;5060774;28;19921;-74
2023/01/28 13:09:11;;;;;;;;;;;10.60;99.90;;;;;;5001576;28;212184;-74
2023/01/28 13:11:37;;;;;;;;;;;11.20;99.80;;;;;;5029110;28;19932;-74
2023/01/28 13:14:03;;;;;;;;;;;11.60;99.90;;;;;;4990710;28;208621;-73
2023/01/28 13:16:29;;;;;;;;;;;12.00;99.30;;;;;;5056268;28;19924;-74
2023/01/28 13:19:04;;;;;;;;;;;12.30;98.20;;;;;;5056667;28;19936;-74
2023/01/28 13:21:32;;;;;;;;;;;12.60;98.40;;;;;;5022696;28;19944;-73
2023/01/28 13:24:01;;;;;;;;;;;12.50;97.80;;;;;;4991578;28;63855;-74
2023/01/28 13:26:27;;;;;;;;;;;12.40;98.10;;;;;;5036564;28;20906;-74
2023/01/28 13:28:53;;;;;;;;;;;12.10;98.20;;;;;;4984304;28;207475;-74
2023/01/28 13:31:23;;;;;;;;;;;11.00;98.30;;;;;;5042655;28;19928;-73
2023/01/28 13:33:55;;;;;;;;;;;10.20;99.50;;;;;;4999638;28;164668;-73
2023/01/28 13:36:21;;;;;;;;;;;11.00;98.80;;;;;;5050890;28;19928;-73
2023/01/28 13:38:47;;;;;;;;;;;11.90;99.40;;;;;;4995733;28;208682;-74
2023/01/28 13:41:13;;;;;;;;;;;12.40;97.80;;;;;;5055091;28;19924;-74
2023/01/28 13:43:40;;;;;;;;;;;12.20;97.10;;;;;;4980104;28;222400;-74
2023/01/28 13:46:10;;;;;;;;;;;11.20;99.20;;;;;;5071411;28;19929;-74
2023/01/28 13:48:45;;;;;;;;;;;10.50;99.70;;;;;;5007549;28;26359;-73
2023/01/28 13:51:15;;;;;;;;;;;9.60;99.80;;;;;;5047690;28;19932;-74
2023/01/28 13:53:55;;;;;;;;;;;8.80;99.90;;;;;;4979322;28;117700;-73
2023/01/28 13:56:22;;;;;;;;;;;8.30;99.90;;;;;;5018190;28;21698;-73
2023/01/28 13:58:57;;;;;;;;;;;7.70;99.90;;;;;;4997753;28;126491;-73
2023/01/28 14:01:29;;;;;;;;;;;7.30;99.90;;;;;;5030104;28;19939;-72
2023/01/28 14:04:13;;;;;;;;;;;7.10;99.90;;;;;;5002422;28;210132;-72
2023/01/28 14:06:58;;;;;;;;;;;6.80;99.90;;;;;;5058032;28;20012;-71
2023/01/28 14:09:37;;;;;;;;;;;6.50;99.90;;;;;;4997546;28;208062;-72
2023/01/28 14:12:03;;;;;;;;;;;6.20;99.90;;;;;;5038575;28;20218;-72
2023/01/28 14:14:29;;;;;;;;;;;6.00;99.90;;;;;;4997721;28;210761;-72
2023/01/28 14:17:05;;;;;;;;;;;5.90;99.90;;;;;;5035494;28;20578;-73
2023/01/28 14:19:33;;;;;;;;;;;5.90;99.90;;;;;;4996591;28;208962;-72
2023/01/28 14:22:05;;;;;;;;;;;5.90;99.90;;;;;;5067815;28;19931;-72
2023/01/28 14:24:32;;;;;;;;;;;5.80;99.90;;;;;;4986221;28;209392;-72
2023/01/28 14:27:08;;;;;;;;;;;5.90;99.90;;;;;;5054880;28;19969;-72
2023/01/28 14:29:43;;;;;;;;;;;5.70;99.90;;;;;;4975566;28;249608;-72
2023/01/28 14:32:14;;;;;;;;;;;5.70;99.90;;;;;;5041094;28;19929;-72
2023/01/28 14:34:41;;;;;;;;;;;5.50;99.90;;;;;;4986268;28;210000;-72
2023/01/28 14:37:09;;;;;;;;;;;5.50;99.90;;;;;;5020628;28;20841;-72
2023/01/28 14:39:43;;;;;;;;;;;5.40;99.90;;;;;;4985032;28;209170;-72
2023/01/28 14:42:12;;;;;;;;;;;5.30;99.90;;;;;;5043096;28;19932;-73
2023/01/28 14:44:39;;;;;;;;;;;5.30;99.90;;;;;;5002895;28;158874;-72
2023/01/28 14:47:24;;;;;;;;;;;5.30;99.90;;;;;;5048691;28;19943;-73
2023/01/28 14:50:09;;;;;;;;;;;5.30;99.90;;;;;;4982706;28;206684;-72
2023/01/28 14:52:50;;;;;;;;;;;5.20;99.90;;;;;;5050341;28;19921;-72
2023/01/28 14:55:21;;;;;;;;;;;5.20;99.90;;;;;;4995337;28;124423;-73
2023/01/28 14:57:53;;;;;;;;;;;5.10;99.90;;;;;;5038462;28;19939;-72
2023/01/28 15:00:21;;;;;;;;;;;5.10;99.90;;;;;;4961285;28;207261;-72